Time;durP1;ratioP1;P1;durP2;ratioP2;P2;SDS_P1;SDS_P2;PMS_P1;PMS_P2;Temp;Humidity;BMP_temperature;BMP_pressure;BME280_temperature;BME280_humidity;BME280_pressure;Samples;Min_cycle;Max_cycle;Signal;HPM_P1;HPM_P2
2023/06/26 00:00:47;;;;;;;;;;;26.50;56.70;;;;;;10330193;28;95895;-62
2023/06/26 00:05:50;;;;;;;;;;;26.50;56.60;;;;;;10314653;28;94461;-61
2023/06/26 00:10:53;;;;;;;;;;;26.50;56.60;;;;;;10331911;28;93579;-62
2023/06/26 00:15:54;;;;;;;;;;;26.50;56.60;;;;;;10331110;28;94486;-62
2023/06/26 00:20:56;;;;;;;;;;;26.40;56.60;;;;;;10332212;28;94567;-61
2023/06/26 00:25:58;;;;;;;;;;;26.40;56.70;;;;;;10331685;28;95661;-62
2023/06/26 00:30:59;;;;;;;;;;;26.40;56.70;;;;;;10330947;28;92503;-67
2023/06/26 00:36:01;;;;;;;;;;;26.40;56.80;;;;;;10332271;28;92874;-62
2023/06/26 00:41:04;;;;;;;;;;;26.40;56.80;;;;;;10331208;28;94515;-66
2023/06/26 00:46:08;;;;;;;;;;;26.40;56.80;;;;;;10296513;28;93645;-67
2023/06/26 00:51:10;;;;;;;;;;;26.40;56.80;;;;;;10327478;28;96184;-62
2023/06/26 00:56:11;;;;;;;;;;;26.30;56.80;;;;;;10329873;28;94202;-62
2023/06/26 01:01:17;;;;;;;;;;;26.30;56.90;;;;;;10313435;28;94505;-61
2023/06/26 01:06:20;;;;;;;;;;;26.30;56.90;;;;;;10331614;28;94598;-62
2023/06/26 01:11:22;;;;;;;;;;;26.30;56.90;;;;;;10330815;28;94320;-62
2023/06/26 01:16:24;;;;;;;;;;;26.30;57.00;;;;;;10329951;28;94441;-62
2023/06/26 01:21:32;;;;;;;;;;;26.30;57.10;;;;;;10311995;28;94513;-62
2023/06/26 01:26:36;;;;;;;;;;;26.30;57.10;;;;;;10330449;28;92886;-62
2023/06/26 01:31:39;;;;;;;;;;;26.30;57.10;;;;;;10328703;28;94567;-62
2023/06/26 01:36:40;;;;;;;;;;;26.30;57.10;;;;;;10330072;28;94476;-62
2023/06/26 01:41:43;;;;;;;;;;;26.30;57.10;;;;;;10327085;28;96925;-62
2023/06/26 01:46:51;;;;;;;;;;;26.30;57.20;;;;;;10310952;28;94528;-62
2023/06/26 01:52:02;;;;;;;;;;;26.30;57.20;;;;;;10328797;28;94590;-62
2023/06/26 01:57:05;;;;;;;;;;;26.30;57.30;;;;;;10328159;28;94029;-62
2023/06/26 02:02:07;;;;;;;;;;;26.30;57.20;;;;;;10328789;28;94557;-62
2023/06/26 02:07:09;;;;;;;;;;;26.30;57.20;;;;;;10328753;28;93494;-62
2023/06/26 02:12:11;;;;;;;;;;;26.30;57.20;;;;;;10311370;28;94483;-62
2023/06/26 02:17:13;;;;;;;;;;;26.30;57.20;;;;;;10329239;28;93790;-62
2023/06/26 02:22:15;;;;;;;;;;;26.30;57.20;;;;;;10328153;28;94428;-62
2023/06/26 02:27:17;;;;;;;;;;;26.30;57.20;;;;;;10328728;28;92908;-61
2023/06/26 02:32:19;;;;;;;;;;;26.30;57.20;;;;;;10324358;28;97266;-61
2023/06/26 02:37:20;;;;;;;;;;;26.20;57.10;;;;;;10309620;28;94505;-62
2023/06/26 02:42:22;;;;;;;;;;;26.20;57.10;;;;;;10327164;28;94627;-62
2023/06/26 02:47:24;;;;;;;;;;;26.20;57.10;;;;;;10326650;28;94605;-63
2023/06/26 02:52:25;;;;;;;;;;;26.30;57.20;;;;;;10326038;28;93508;-66
2023/06/26 02:57:27;;;;;;;;;;;26.30;57.10;;;;;;10327790;28;93758;-66
2023/06/26 03:02:29;;;;;;;;;;;26.20;57.10;;;;;;10315873;28;94505;-67
2023/06/26 03:07:31;;;;;;;;;;;26.30;57.20;;;;;;10334102;28;93613;-67
2023/06/26 03:12:32;;;;;;;;;;;26.30;57.10;;;;;;10334174;28;93029;-62
2023/06/26 03:17:34;;;;;;;;;;;26.30;57.10;;;;;;10334249;28;94575;-62
2023/06/26 03:22:36;;;;;;;;;;;26.20;57.10;;;;;;10313938;28;97069;-62
2023/06/26 03:27:38;;;;;;;;;;;26.30;57.10;;;;;;10333188;28;93160;-61
2023/06/26 03:32:39;;;;;;;;;;;26.30;57.10;;;;;;10333190;28;94537;-62
2023/06/26 03:37:41;;;;;;;;;;;26.30;57.10;;;;;;10332776;28;93485;-62
2023/06/26 03:42:43;;;;;;;;;;;26.30;57.10;;;;;;10315442;28;93445;-62
2023/06/26 03:47:47;;;;;;;;;;;26.30;57.10;;;;;;10332865;28;92809;-62
2023/06/26 03:52:50;;;;;;;;;;;26.30;57.10;;;;;;10332913;28;94476;-62
2023/06/26 03:57:52;;;;;;;;;;;26.30;57.10;;;;;;10332795;28;92074;-63
2023/06/26 04:02:53;;;;;;;;;;;26.30;57.10;;;;;;10333122;28;93503;-62
2023/06/26 04:07:55;;;;;;;;;;;26.30;57.10;;;;;;10332212;28;93510;-63
2023/06/26 04:12:57;;;;;;;;;;;26.30;57.10;;;;;;10327888;28;95951;-62
2023/06/26 04:17:59;;;;;;;;;;;26.30;57.10;;;;;;10332114;28;94603;-63
2023/06/26 04:23:01;;;;;;;;;;;26.20;57.10;;;;;;10332218;28;94956;-63
2023/06/26 04:28:03;;;;;;;;;;;26.20;57.10;;;;;;10314199;28;94692;-62
2023/06/26 04:33:04;;;;;;;;;;;26.30;57.10;;;;;;10331219;28;94513;-62
2023/06/26 04:38:06;;;;;;;;;;;26.20;57.10;;;;;;10313405;28;94503;-62
2023/06/26 04:43:08;;;;;;;;;;;26.20;57.00;;;;;;10331256;28;93605;-62
2023/06/26 04:48:09;;;;;;;;;;;26.20;57.10;;;;;;10757685;22;93758;-67
2023/06/26 04:53:11;;;;;;;;;;;26.20;57.10;;;;;;10329576;28;94832;-62
2023/06/26 04:58:13;;;;;;;;;;;26.20;57.20;;;;;;10330074;28;93535;-62
2023/06/26 05:03:16;;;;;;;;;;;26.20;57.20;;;;;;10326968;28;95928;-62
2023/06/26 05:08:23;;;;;;;;;;;26.20;57.20;;;;;;10330775;28;94466;-62
2023/06/26 05:13:26;;;;;;;;;;;26.20;57.20;;;;;;10330042;28;93851;-62
2023/06/26 05:18:27;;;;;;;;;;;26.20;57.20;;;;;;10330976;28;93419;-62
2023/06/26 05:23:32;;;;;;;;;;;26.20;57.20;;;;;;10329268;28;93572;-67
2023/06/26 05:28:35;;;;;;;;;;;26.10;57.10;;;;;;10328557;28;93617;-67
2023/06/26 05:33:38;;;;;;;;;;;26.10;57.00;;;;;;10329863;28;94475;-62
2023/06/26 05:38:39;;;;;;;;;;;26.10;57.00;;;;;;10328946;28;93806;-61
2023/06/26 05:43:41;;;;;;;;;;;26.10;54.60;;;;;;10327932;28;93613;-61
2023/06/26 05:48:43;;;;;;;;;;;25.90;53.60;;;;;;10327534;28;94767;-61
2023/06/26 05:53:45;;;;;;;;;;;25.80;53.80;;;;;;10325478;28;97261;-65
2023/06/26 05:58:50;;;;;;;;;;;25.60;53.70;;;;;;10309530;28;94449;-62
2023/06/26 06:03:51;;;;;;;;;;;25.60;53.80;;;;;;10328689;28;94879;-61
2023/06/26 06:08:53;;;;;;;;;;;25.60;54.10;;;;;;10327095;28;93882;-62
2023/06/26 06:13:55;;;;;;;;;;;25.60;54.00;;;;;;10327727;28;94611;-62
2023/06/26 06:18:56;;;;;;;;;;;25.60;53.90;;;;;;10328528;28;94902;-63
2023/06/26 06:23:58;;;;;;;;;;;25.60;53.70;;;;;;10327311;28;93598;-60
2023/06/26 06:29:00;;;;;;;;;;;25.60;52.80;;;;;;10328761;28;93737;-62
2023/06/26 06:34:03;;;;;;;;;;;25.50;52.60;;;;;;10308845;28;94879;-66
2023/06/26 06:39:04;;;;;;;;;;;25.30;52.70;;;;;;10327067;28;93677;-65
2023/06/26 06:44:06;;;;;;;;;;;25.10;53.40;;;;;;10324284;28;95247;-66
2023/06/26 06:49:08;;;;;;;;;;;25.00;53.70;;;;;;10326231;28;94130;-61
2023/06/26 06:54:10;;;;;;;;;;;25.00;53.70;;;;;;10308952;28;94176;-62
2023/06/26 06:59:11;;;;;;;;;;;25.00;53.70;;;;;;10326355;28;92768;-61
2023/06/26 07:04:13;;;;;;;;;;;25.00;54.00;;;;;;10326055;28;93412;-62
2023/06/26 07:09:15;;;;;;;;;;;25.00;54.10;;;;;;10309984;28;94508;-61
2023/06/26 07:14:16;;;;;;;;;;;25.00;55.30;;;;;;10324221;28;92996;-61
2023/06/26 07:19:18;;;;;;;;;;;25.20;54.30;;;;;;10324032;28;92681;-61
2023/06/26 07:24:20;;;;;;;;;;;25.30;55.10;;;;;;10305253;28;94046;-65
2023/06/26 07:29:22;;;;;;;;;;;25.50;53.80;;;;;;10323510;28;94706;-61
2023/06/26 07:34:23;;;;;;;;;;;25.60;53.50;;;;;;10305666;28;95814;-65
2023/06/26 07:39:25;;;;;;;;;;;25.80;53.50;;;;;;10326518;28;93594;-61
2023/06/26 07:44:27;;;;;;;;;;;25.80;53.30;;;;;;10327591;28;93485;-61
2023/06/26 07:49:28;;;;;;;;;;;25.80;53.50;;;;;;10332492;28;94799;-61
2023/06/26 07:54:30;;;;;;;;;;;25.90;53.40;;;;;;10314845;28;94745;-62
2023/06/26 07:59:32;;;;;;;;;;;25.90;54.10;;;;;;10331138;28;93085;-65
2023/06/26 08:04:34;;;;;;;;;;;25.80;53.00;;;;;;10331644;28;93705;-61
2023/06/26 08:09:36;;;;;;;;;;;25.70;53.30;;;;;;10332951;28;92738;-61
2023/06/26 08:14:38;;;;;;;;;;;25.70;53.50;;;;;;10331892;28;94485;-62
2023/06/26 08:19:40;;;;;;;;;;;25.60;53.60;;;;;;10331319;28;93741;-61
2023/06/26 08:24:41;;;;;;;;;;;25.60;53.70;;;;;;10329754;28;96963;-66
2023/06/26 08:29:43;;;;;;;;;;;25.60;54.00;;;;;;10331498;28;94525;-66
2023/06/26 08:34:44;;;;;;;;;;;25.60;53.60;;;;;;10312684;28;94486;-65
2023/06/26 08:39:49;;;;;;;;;;;25.60;53.20;;;;;;10330482;28;94595;-62
2023/06/26 08:44:51;;;;;;;;;;;25.60;53.00;;;;;;10330405;28;93677;-62
2023/06/26 08:50:10;;;;;;;;;;;25.60;52.90;;;;;;10330385;28;93519;-66
2023/06/26 08:55:13;;;;;;;;;;;25.50;52.70;;;;;;10330115;28;94487;-67
2023/06/26 09:00:15;;;;;;;;;;;25.50;52.80;;;;;;10330544;28;93802;-61
2023/06/26 09:05:17;;;;;;;;;;;25.40;52.60;;;;;;10330637;28;94643;-66
2023/06/26 09:10:19;;;;;;;;;;;25.40;52.80;;;;;;10312318;28;94645;-66
2023/06/26 09:15:21;;;;;;;;;;;25.40;53.00;;;;;;10327954;28;96954;-66
2023/06/26 09:20:23;;;;;;;;;;;25.40;53.10;;;;;;10330654;28;94371;-64
2023/06/26 09:25:25;;;;;;;;;;;25.30;53.10;;;;;;10329367;28;94230;-61
2023/06/26 09:30:27;;;;;;;;;;;25.30;53.40;;;;;;10330570;28;94766;-65
2023/06/26 09:35:31;;;;;;;;;;;25.30;53.10;;;;;;10312285;28;114345;-66
2023/06/26 09:40:35;;;;;;;;;;;25.30;53.20;;;;;;10329652;28;94396;-61
2023/06/26 09:45:37;;;;;;;;;;;25.30;53.20;;;;;;10329440;28;94651;-65
2023/06/26 09:50:41;;;;;;;;;;;25.40;53.50;;;;;;10329067;28;92441;-65
2023/06/26 09:56:07;;;;;;;;;;;25.50;53.80;;;;;;10328309;28;95845;-61
2023/06/26 10:01:09;;;;;;;;;;;25.60;53.90;;;;;;10328945;28;93307;-65
2023/06/26 10:06:11;;;;;;;;;;;25.60;53.80;;;;;;10325724;28;95418;-66
2023/06/26 10:11:15;;;;;;;;;;;25.70;53.90;;;;;;10310554;28;94503;-66
2023/06/26 10:16:21;;;;;;;;;;;25.80;53.90;;;;;;10328157;28;93781;-61
2023/06/26 10:21:23;;;;;;;;;;;25.80;54.00;;;;;;10309738;28;93673;-61
2023/06/26 10:26:26;;;;;;;;;;;25.80;53.80;;;;;;10309665;28;94578;-66
2023/06/26 10:31:28;;;;;;;;;;;25.80;53.70;;;;;;10327784;28;94142;-66
2023/06/26 10:36:32;;;;;;;;;;;25.80;53.70;;;;;;10326987;28;94466;-61
2023/06/26 10:41:43;;;;;;;;;;;25.90;53.70;;;;;;10310520;28;94029;-62
2023/06/26 10:47:04;;;;;;;;;;;25.90;53.60;;;;;;10313829;28;94092;-62
2023/06/26 10:52:06;;;;;;;;;;;25.90;53.40;;;;;;10326273;28;93639;-61
2023/06/26 10:57:08;;;;;;;;;;;26.00;53.30;;;;;;10324633;28;95186;-66
2023/06/26 11:02:10;;;;;;;;;;;26.00;53.20;;;;;;10310481;28;93644;-66
2023/06/26 11:07:19;;;;;;;;;;;26.00;52.70;;;;;;10326340;28;93647;-65
2023/06/26 11:12:41;;;;;;;;;;;26.10;53.10;;;;;;10327158;28;93624;-61
2023/06/26 11:17:43;;;;;;;;;;;26.00;52.80;;;;;;10326236;28;93446;-61
2023/06/26 11:22:45;;;;;;;;;;;26.10;52.90;;;;;;10332685;28;93373;-61
2023/06/26 11:27:47;;;;;;;;;;;26.10;52.60;;;;;;10315739;28;94505;-61
2023/06/26 11:32:49;;;;;;;;;;;26.10;52.50;;;;;;10316035;28;92954;-65
2023/06/26 11:37:54;;;;;;;;;;;26.10;52.40;;;;;;10316098;28;94050;-65
2023/06/26 11:42:59;;;;;;;;;;;26.10;52.30;;;;;;10333357;28;94574;-61
2023/06/26 11:48:01;;;;;;;;;;;26.10;52.50;;;;;;10329774;28;95855;-65
2023/06/26 11:53:05;;;;;;;;;;;26.10;52.10;;;;;;10333195;28;92522;-65
2023/06/26 11:58:06;;;;;;;;;;;26.10;52.30;;;;;;10332809;28;94646;-61
2023/06/26 12:03:08;;;;;;;;;;;26.20;52.30;;;;;;10332400;28;93575;-61
2023/06/26 12:08:10;;;;;;;;;;;26.10;52.00;;;;;;10332294;28;92879;-61
2023/06/26 12:13:12;;;;;;;;;;;26.20;52.20;;;;;;10332391;28;93717;-65
2023/06/26 12:18:14;;;;;;;;;;;26.20;52.00;;;;;;10331901;28;94709;-61
2023/06/26 12:23:15;;;;;;;;;;;26.20;52.00;;;;;;10331859;28;93224;-61
2023/06/26 12:28:18;;;;;;;;;;;26.20;51.90;;;;;;10332397;28;94145;-65
2023/06/26 12:33:19;;;;;;;;;;;26.20;51.90;;;;;;10329694;28;92706;-62
2023/06/26 12:38:21;;;;;;;;;;;26.20;51.80;;;;;;10328715;28;96871;-62
2023/06/26 12:43:23;;;;;;;;;;;26.20;51.90;;;;;;10332318;28;92658;-61
2023/06/26 12:48:47;;;;;;;;;;;26.20;51.90;;;;;;10330912;28;94631;-66
2023/06/26 12:53:49;;;;;;;;;;;26.20;51.90;;;;;;10330464;28;93609;-61
2023/06/26 12:58:50;;;;;;;;;;;26.20;51.70;;;;;;10330680;28;93246;-61
2023/06/26 13:03:52;;;;;;;;;;;26.20;51.60;;;;;;10331634;28;94510;-61
2023/06/26 13:08:54;;;;;;;;;;;26.20;51.60;;;;;;10330677;28;93240;-61
2023/06/26 13:13:56;;;;;;;;;;;26.20;52.60;;;;;;10331045;28;93873;-66
2023/06/26 13:19:11;;;;;;;;;;;26.20;51.70;;;;;;10329781;28;94980;-66
2023/06/26 13:24:13;;;;;;;;;;;26.10;51.40;;;;;;10330019;28;93710;-61
2023/06/26 13:29:15;;;;;;;;;;;26.20;51.40;;;;;;10327164;28;95971;-62
2023/06/26 13:34:22;;;;;;;;;;;26.10;51.30;;;;;;10329954;28;94107;-62
2023/06/26 13:39:24;;;;;;;;;;;26.10;51.10;;;;;;10329553;28;94452;-61
2023/06/26 13:44:25;;;;;;;;;;;26.10;51.20;;;;;;10328210;28;93788;-61
2023/06/26 13:49:36;;;;;;;;;;;26.10;51.20;;;;;;10311464;28;94208;-61
2023/06/26 13:54:40;;;;;;;;;;;26.10;51.10;;;;;;10329024;28;93505;-61
2023/06/26 13:59:41;;;;;;;;;;;26.00;50.80;;;;;;10328089;28;94571;-62
2023/06/26 14:04:43;;;;;;;;;;;26.00;51.00;;;;;;10329007;28;93060;-61
2023/06/26 14:09:45;;;;;;;;;;;26.00;51.00;;;;;;10328472;28;94434;-62
2023/06/26 14:14:46;;;;;;;;;;;26.00;50.90;;;;;;10328112;28;93568;-61
2023/06/26 14:19:48;;;;;;;;;;;26.00;50.80;;;;;;10325444;28;96636;-61
2023/06/26 14:24:50;;;;;;;;;;;26.00;50.90;;;;;;10328930;28;94831;-61
2023/06/26 14:29:52;;;;;;;;;;;26.00;50.90;;;;;;10327671;28;94469;-61
2023/06/26 14:34:54;;;;;;;;;;;26.00;50.60;;;;;;10327174;28;93749;-61
2023/06/26 14:39:55;;;;;;;;;;;26.00;50.80;;;;;;10327251;28;93614;-61
2023/06/26 14:44:57;;;;;;;;;;;26.00;51.00;;;;;;10327436;28;93390;-62
2023/06/26 14:50:00;;;;;;;;;;;26.00;50.70;;;;;;10309561;28;93819;-61
2023/06/26 14:55:02;;;;;;;;;;;25.90;50.40;;;;;;10330769;28;93680;-61
2023/06/26 15:00:08;;;;;;;;;;;25.90;50.20;;;;;;10333127;28;94112;-61
2023/06/26 15:05:09;;;;;;;;;;;25.90;50.30;;;;;;10334298;28;93633;-61
2023/06/26 15:10:11;;;;;;;;;;;25.90;50.40;;;;;;10331445;28;96903;-66
2023/06/26 15:15:13;;;;;;;;;;;26.00;50.30;;;;;;10335355;28;93337;-66
2023/06/26 15:20:15;;;;;;;;;;;26.00;50.30;;;;;;10333443;28;93526;-61
2023/06/26 15:25:16;;;;;;;;;;;25.90;50.10;;;;;;10333572;28;93484;-61
2023/06/26 15:30:18;;;;;;;;;;;26.00;50.10;;;;;;10333866;28;93407;-61
2023/06/26 15:35:20;;;;;;;;;;;26.00;50.20;;;;;;10333505;28;93615;-61
2023/06/26 15:40:21;;;;;;;;;;;26.00;50.10;;;;;;10333365;28;94466;-61
2023/06/26 15:45:26;;;;;;;;;;;26.00;50.10;;;;;;10333332;28;92856;-62
2023/06/26 15:50:27;;;;;;;;;;;26.00;49.70;;;;;;10332056;28;94287;-61
2023/06/26 15:55:29;;;;;;;;;;;26.00;49.60;;;;;;10332624;28;93714;-62
2023/06/26 16:00:31;;;;;;;;;;;26.00;49.80;;;;;;10330643;28;95893;-61
2023/06/26 16:05:32;;;;;;;;;;;26.00;49.60;;;;;;10333122;28;94456;-61
2023/06/26 16:10:34;;;;;;;;;;;26.00;49.70;;;;;;10332973;28;94512;-61
2023/06/26 16:15:36;;;;;;;;;;;26.00;49.50;;;;;;10332601;28;94744;-61
2023/06/26 16:20:38;;;;;;;;;;;26.00;49.70;;;;;;10331898;28;94262;-61
2023/06/26 16:25:40;;;;;;;;;;;26.00;49.60;;;;;;10314011;28;94541;-61
2023/06/26 16:30:42;;;;;;;;;;;26.00;49.60;;;;;;10331667;28;93540;-61
2023/06/26 16:35:44;;;;;;;;;;;26.00;49.50;;;;;;10331593;28;93449;-66
2023/06/26 16:40:46;;;;;;;;;;;26.00;49.40;;;;;;10331011;28;94579;-66
2023/06/26 16:45:48;;;;;;;;;;;26.00;49.50;;;;;;10330856;28;95056;-62
2023/06/26 16:50:50;;;;;;;;;;;26.00;47.20;;;;;;10327424;28;97017;-61
2023/06/26 16:55:52;;;;;;;;;;;26.00;46.10;;;;;;10330445;28;94113;-61
2023/06/26 17:00:54;;;;;;;;;;;26.00;44.50;;;;;;10330330;28;94561;-61
2023/06/26 17:05:56;;;;;;;;;;;26.10;43.30;;;;;;10330365;28;94720;-61
2023/06/26 17:10:57;;;;;;;;;;;26.10;42.50;;;;;;10311525;28;94665;-61
2023/06/26 17:15:59;;;;;;;;;;;26.10;42.10;;;;;;10328986;28;93672;-61
2023/06/26 17:21:01;;;;;;;;;;;26.10;42.00;;;;;;10329396;28;93532;-61
2023/06/26 17:26:02;;;;;;;;;;;26.00;42.00;;;;;;10311734;28;93985;-61
2023/06/26 17:31:04;;;;;;;;;;;26.00;41.40;;;;;;10330422;28;94439;-60
2023/06/26 17:36:06;;;;;;;;;;;26.00;41.60;;;;;;10330591;28;94496;-67
2023/06/26 17:41:08;;;;;;;;;;;26.00;41.30;;;;;;10327026;28;95879;-66
2023/06/26 17:46:10;;;;;;;;;;;26.00;41.10;;;;;;10329176;28;93581;-65
2023/06/26 17:51:12;;;;;;;;;;;26.00;41.30;;;;;;10328575;28;93462;-67
2023/06/26 17:56:14;;;;;;;;;;;26.00;41.10;;;;;;10329588;28;94418;-66
2023/06/26 18:01:15;;;;;;;;;;;26.00;40.80;;;;;;10327949;28;93806;-67
2023/06/26 18:06:17;;;;;;;;;;;25.90;40.70;;;;;;10329328;28;94439;-61
2023/06/26 18:11:19;;;;;;;;;;;25.90;40.80;;;;;;10310947;28;93606;-66
2023/06/26 18:16:21;;;;;;;;;;;25.90;40.60;;;;;;10328655;28;93676;-66
2023/06/26 18:21:24;;;;;;;;;;;25.90;41.10;;;;;;10311728;28;93873;-67
2023/06/26 18:26:26;;;;;;;;;;;25.90;41.10;;;;;;10328031;28;93481;-65
2023/06/26 18:31:27;;;;;;;;;;;25.90;40.30;;;;;;10324747;28;97386;-65
2023/06/26 18:36:30;;;;;;;;;;;25.70;40.00;;;;;;10328576;28;94682;-65
2023/06/26 18:41:32;;;;;;;;;;;25.50;40.90;;;;;;10327978;28;94053;-60
2023/06/26 18:46:34;;;;;;;;;;;25.40;40.80;;;;;;10327935;28;94625;-61
2023/06/26 18:51:36;;;;;;;;;;;25.20;41.40;;;;;;10325710;28;93253;-61
2023/06/26 18:56:37;;;;;;;;;;;25.00;41.90;;;;;;10327163;28;94920;-61
2023/06/26 19:01:39;;;;;;;;;;;24.90;41.70;;;;;;10326690;28;94433;-61
2023/06/26 19:06:41;;;;;;;;;;;24.60;42.40;;;;;;10327690;28;93837;-66
2023/06/26 19:11:43;;;;;;;;;;;24.50;43.70;;;;;;10326526;28;94272;-61
2023/06/26 19:16:44;;;;;;;;;;;24.40;43.10;;;;;;10309154;28;94588;-61
2023/06/26 19:21:46;;;;;;;;;;;24.30;42.90;;;;;;10324296;28;96678;-61
2023/06/26 19:26:49;;;;;;;;;;;24.30;43.20;;;;;;10326612;28;93843;-65
2023/06/26 19:31:52;;;;;;;;;;;24.20;43.30;;;;;;10310181;28;94874;-65
2023/06/26 19:36:53;;;;;;;;;;;24.20;43.60;;;;;;10326524;28;94015;-66
2023/06/26 19:41:55;;;;;;;;;;;24.10;43.90;;;;;;10331150;28;94421;-60
2023/06/26 19:46:57;;;;;;;;;;;24.00;43.90;;;;;;10333019;28;94650;-61
2023/06/26 19:51:59;;;;;;;;;;;24.00;44.40;;;;;;10333162;28;94529;-61
2023/06/26 19:57:01;;;;;;;;;;;24.00;44.30;;;;;;10333744;28;92728;-65
2023/06/26 20:02:03;;;;;;;;;;;24.00;44.80;;;;;;10331963;28;93896;-65
2023/06/26 20:07:05;;;;;;;;;;;24.00;44.60;;;;;;10330986;28;93456;-60
2023/06/26 20:12:09;;;;;;;;;;;24.00;44.40;;;;;;10328639;28;96957;-66
2023/06/26 20:17:10;;;;;;;;;;;24.00;44.60;;;;;;10330932;28;94939;-61
2023/06/26 20:22:12;;;;;;;;;;;24.00;44.70;;;;;;10331244;28;94544;-61
2023/06/26 20:27:14;;;;;;;;;;;24.00;44.60;;;;;;10331153;28;93644;-65
2023/06/26 20:32:17;;;;;;;;;;;24.00;44.60;;;;;;10330517;28;93554;-65
2023/06/26 20:37:19;;;;;;;;;;;24.00;44.40;;;;;;10330812;28;94991;-61
2023/06/26 20:42:20;;;;;;;;;;;24.00;44.40;;;;;;10330282;28;93545;-61
2023/06/26 20:47:29;;;;;;;;;;;24.00;44.20;;;;;;10331453;28;92930;-60
2023/06/26 20:52:33;;;;;;;;;;;24.00;44.20;;;;;;10288863;28;93672;-61
2023/06/26 20:57:35;;;;;;;;;;;24.10;44.40;;;;;;10289657;28;94621;-60
2023/06/26 21:02:36;;;;;;;;;;;24.20;44.40;;;;;;10286501;28;96892;-61
2023/06/26 21:07:38;;;;;;;;;;;24.30;44.30;;;;;;10288424;28;93330;-61
2023/06/26 21:12:40;;;;;;;;;;;24.40;44.20;;;;;;10289183;28;93693;-60
2023/06/26 21:17:42;;;;;;;;;;;24.40;44.50;;;;;;10288347;28;93454;-60
2023/06/26 21:22:44;;;;;;;;;;;24.50;44.30;;;;;;10288950;28;94597;-59
2023/06/26 21:27:45;;;;;;;;;;;24.50;44.30;;;;;;10287415;28;93485;-61
2023/06/26 21:32:48;;;;;;;;;;;24.60;44.20;;;;;;10288546;28;94148;-61
2023/06/26 21:37:49;;;;;;;;;;;24.70;44.30;;;;;;10286982;28;92255;-60
2023/06/26 21:42:51;;;;;;;;;;;24.80;44.40;;;;;;10286706;28;93614;-60
2023/06/26 21:47:53;;;;;;;;;;;24.80;44.40;;;;;;10288781;28;93684;-60
2023/06/26 21:52:55;;;;;;;;;;;24.80;44.40;;;;;;10325190;28;95924;-60
2023/06/26 21:57:56;;;;;;;;;;;24.90;44.50;;;;;;10329790;28;94450;-60
2023/06/26 22:02:58;;;;;;;;;;;24.90;44.50;;;;;;10328902;28;92777;-65
2023/06/26 22:08:00;;;;;;;;;;;24.90;44.50;;;;;;10328340;28;94444;-61
2023/06/26 22:13:03;;;;;;;;;;;24.90;44.50;;;;;;10327933;28;93415;-61
2023/06/26 22:18:05;;;;;;;;;;;24.90;44.60;;;;;;10327880;28;94105;-61
2023/06/26 22:23:07;;;;;;;;;;;25.00;44.70;;;;;;10329178;28;94295;-66
2023/06/26 22:28:09;;;;;;;;;;;24.90;44.70;;;;;;10328964;28;93431;-65
2023/06/26 22:33:10;;;;;;;;;;;25.00;44.90;;;;;;10327877;28;94608;-61
2023/06/26 22:38:12;;;;;;;;;;;25.00;44.90;;;;;;10327028;28;94603;-65
2023/06/26 22:43:14;;;;;;;;;;;24.90;44.90;;;;;;10325197;28;96047;-65
2023/06/26 22:48:16;;;;;;;;;;;24.90;45.00;;;;;;10327504;28;94564;-65
2023/06/26 22:53:19;;;;;;;;;;;24.90;45.10;;;;;;10326896;28;93439;-66
2023/06/26 22:58:21;;;;;;;;;;;24.90;45.10;;;;;;10327476;28;94449;-65
2023/06/26 23:03:22;;;;;;;;;;;24.90;45.20;;;;;;10327754;28;94762;-65
2023/06/26 23:08:25;;;;;;;;;;;24.90;45.20;;;;;;10326704;28;93315;-66
2023/06/26 23:13:27;;;;;;;;;;;24.90;45.30;;;;;;10327222;28;94981;-66
2023/06/26 23:18:28;;;;;;;;;;;24.90;45.40;;;;;;10317058;28;93851;-66
2023/06/26 23:23:30;;;;;;;;;;;24.90;45.40;;;;;;10333799;28;93040;-65
2023/06/26 23:28:32;;;;;;;;;;;24.90;45.40;;;;;;10333666;28;94459;-65
2023/06/26 23:33:41;;;;;;;;;;;24.80;45.40;;;;;;10330469;28;95989;-66
2023/06/26 23:38:43;;;;;;;;;;;24.80;45.40;;;;;;10314703;28;93872;-66
2023/06/26 23:43:45;;;;;;;;;;;24.80;45.40;;;;;;10333659;28;94584;-66
2023/06/26 23:48:46;;;;;;;;;;;24.80;45.50;;;;;;10332232;28;93669;-65
2023/06/26 23:53:51;;;;;;;;;;;24.80;45.60;;;;;;10333086;28;94529;-65
2023/06/26 23:58:53;;;;;;;;;;;24.80;45.60;;;;;;10314298;28;94209;-66
